sensor_id;sensor_type;location;lat;lon;timestamp;pressure;altitude;pressure_sealevel;temperature;humidity
3150;BME280;32503;47.748;8.960;2022-12-20T00:00:06;97633.59;;;2.49;74.01
3150;BME280;32503;47.748;8.960;2022-12-20T00:02:33;97632.78;;;2.49;74.36
3150;BME280;32503;47.748;8.960;2022-12-20T00:05:02;97630.09;;;2.49;74.33
3150;BME280;32503;47.748;8.960;2022-12-20T00:07:29;97625.53;;;2.54;74.08
3150;BME280;32503;47.748;8.960;2022-12-20T00:09:56;97621.78;;;2.55;74.40
3150;BME280;32503;47.748;8.960;2022-12-20T00:12:24;97622.00;;;2.59;73.87
3150;BME280;32503;47.748;8.960;2022-12-20T00:14:51;97619.06;;;2.60;73.86
3150;BME280;32503;47.748;8.960;2022-12-20T00:17:18;97634.50;;;2.63;73.53
3150;BME280;32503;47.748;8.960;2022-12-20T00:19:45;97624.63;;;2.64;73.66
3150;BME280;32503;47.748;8.960;2022-12-20T00:22:13;97629.41;;;2.67;73.42
3150;BME280;32503;47.748;8.960;2022-12-20T00:24:40;97634.75;;;2.67;73.68
3150;BME280;32503;47.748;8.960;2022-12-20T00:27:07;97624.13;;;2.62;73.77
3150;BME280;32503;47.748;8.960;2022-12-20T00:29:34;97629.19;;;2.63;73.41
3150;BME280;32503;47.748;8.960;2022-12-20T00:32:01;97624.06;;;2.67;73.97
3150;BME280;32503;47.748;8.960;2022-12-20T00:34:28;97626.00;;;2.61;73.80
3150;BME280;32503;47.748;8.960;2022-12-20T00:36:55;97618.03;;;2.56;74.17
3150;BME280;32503;47.748;8.960;2022-12-20T00:39:23;97621.78;;;2.55;73.85
3150;BME280;32503;47.748;8.960;2022-12-20T00:41:51;97626.59;;;2.53;74.06
3150;BME280;32503;47.748;8.960;2022-12-20T00:44:17;97624.50;;;2.50;74.71
3150;BME280;32503;47.748;8.960;2022-12-20T00:46:44;97625.31;;;2.51;74.39
3150;BME280;32503;47.748;8.960;2022-12-20T00:49:11;97622.06;;;2.54;75.01
3150;BME280;32503;47.748;8.960;2022-12-20T00:51:38;97626.03;;;2.56;74.38
3150;BME280;32503;47.748;8.960;2022-12-20T00:54:05;97619.06;;;2.60;74.58
3150;BME280;32503;47.748;8.960;2022-12-20T00:56:34;97615.59;;;2.60;74.28
3150;BME280;32503;47.748;8.960;2022-12-20T00:59:01;97619.78;;;2.66;73.74
3150;BME280;32503;47.748;8.960;2022-12-20T01:01:30;97621.63;;;2.71;74.07
3150;BME280;32503;47.748;8.960;2022-12-20T01:04:00;97628.38;;;2.63;74.04
3150;BME280;32503;47.748;8.960;2022-12-20T01:06:28;97616.44;;;2.55;74.05
3150;BME280;32503;47.748;8.960;2022-12-20T01:08:56;97604.97;;;2.55;73.94
3150;BME280;32503;47.748;8.960;2022-12-20T01:11:26;97619.09;;;2.55;73.68
3150;BME280;32503;47.748;8.960;2022-12-20T01:13:56;97601.44;;;2.59;74.05
3150;BME280;32503;47.748;8.960;2022-12-20T01:16:27;97608.88;;;2.62;73.71
3150;BME280;32503;47.748;8.960;2022-12-20T01:18:55;97612.09;;;2.59;73.74
3150;BME280;32503;47.748;8.960;2022-12-20T01:21:24;97608.16;;;2.57;74.29
3150;BME280;32503;47.748;8.960;2022-12-20T01:23:52;97609.22;;;2.56;74.34
3150;BME280;32503;47.748;8.960;2022-12-20T01:26:23;97606.22;;;2.62;74.16
3150;BME280;32503;47.748;8.960;2022-12-20T01:28:55;97605.69;;;2.60;73.86
3150;BME280;32503;47.748;8.960;2022-12-20T01:31:23;97609.97;;;2.61;74.13
3150;BME280;32503;47.748;8.960;2022-12-20T01:33:51;97596.09;;;2.59;73.80
3150;BME280;32503;47.748;8.960;2022-12-20T01:36:21;97600.53;;;2.69;74.00
3150;BME280;32503;47.748;8.960;2022-12-20T01:38:50;97606.59;;;2.75;73.85
3150;BME280;32503;47.748;8.960;2022-12-20T01:41:19;97613.06;;;2.74;74.04
3150;BME280;32503;47.748;8.960;2022-12-20T01:43:50;97609.94;;;2.67;74.21
3150;BME280;32503;47.748;8.960;2022-12-20T01:46:21;97604.41;;;2.58;73.97
3150;BME280;32503;47.748;8.960;2022-12-20T01:48:54;97600.66;;;2.59;73.92
3150;BME280;32503;47.748;8.960;2022-12-20T01:51:23;97609.97;;;2.61;74.11
3150;BME280;32503;47.748;8.960;2022-12-20T01:53:56;97599.81;;;2.63;74.26
3150;BME280;32503;47.748;8.960;2022-12-20T01:56:27;97587.47;;;2.68;73.82
3150;BME280;32503;47.748;8.960;2022-12-20T01:58:55;97582.63;;;2.70;74.16
3150;BME280;32503;47.748;8.960;2022-12-20T02:01:25;97587.97;;;2.70;73.72
3150;BME280;32503;47.748;8.960;2022-12-20T02:03:54;97571.56;;;2.57;74.01
3150;BME280;32503;47.748;8.960;2022-12-20T02:06:23;97585.06;;;2.66;74.06
3150;BME280;32503;47.748;8.960;2022-12-20T02:08:52;97581.13;;;2.63;74.35
3150;BME280;32503;47.748;8.960;2022-12-20T02:12:02;97573.72;;;2.55;74.53
3150;BME280;32503;47.748;8.960;2022-12-20T02:14:49;97570.50;;;2.58;73.98
3150;BME280;32503;47.748;8.960;2022-12-20T02:17:30;97575.78;;;2.63;74.27
3150;BME280;32503;47.748;8.960;2022-12-20T02:23:22;97578.94;;;2.65;74.19
3150;BME280;32503;47.748;8.960;2022-12-20T02:26:08;97583.22;;;2.67;73.84
3150;BME280;32503;47.748;8.960;2022-12-20T02:29:10;97586.13;;;2.70;73.96
3150;BME280;32503;47.748;8.960;2022-12-20T02:31:46;97576.22;;;2.71;74.04
3150;BME280;32503;47.748;8.960;2022-12-20T02:34:16;97559.66;;;2.74;73.74
3150;BME280;32503;47.748;8.960;2022-12-20T02:36:43;97570.31;;;2.74;74.11
3150;BME280;32503;47.748;8.960;2022-12-20T02:39:11;97554.59;;;2.72;73.63
3150;BME280;32503;47.748;8.960;2022-12-20T02:41:43;97562.59;;;2.72;73.42
3150;BME280;32503;47.748;8.960;2022-12-20T02:44:14;97569.28;;;2.70;74.13
3150;BME280;32503;47.748;8.960;2022-12-20T02:47:06;97559.19;;;2.67;73.89
3150;BME280;32503;47.748;8.960;2022-12-20T02:49:37;97571.97;;;2.70;74.29
3150;BME280;32503;47.748;8.960;2022-12-20T02:52:07;97564.66;;;2.75;73.51
3150;BME280;32503;47.748;8.960;2022-12-20T02:54:36;97554.94;;;2.65;73.62
3150;BME280;32503;47.748;8.960;2022-12-20T02:57:09;97559.41;;;2.70;73.74
3150;BME280;32503;47.748;8.960;2022-12-20T02:59:44;97562.38;;;2.69;73.70
3150;BME280;32503;47.748;8.960;2022-12-20T03:02:17;97560.78;;;2.68;74.16
3150;BME280;32503;47.748;8.960;2022-12-20T03:04:45;97552.25;;;2.65;74.06
3150;BME280;32503;47.748;8.960;2022-12-20T03:07:15;97520.41;;;2.50;73.79
3150;BME280;32503;47.748;8.960;2022-12-20T03:09:45;97542.13;;;2.62;74.16
3150;BME280;32503;47.748;8.960;2022-12-20T03:12:13;97533.63;;;2.60;74.18
3150;BME280;32503;47.748;8.960;2022-12-20T03:14:42;97536.25;;;2.65;74.33
3150;BME280;32503;47.748;8.960;2022-12-20T03:17:09;97525.13;;;2.58;74.04
3150;BME280;32503;47.748;8.960;2022-12-20T03:19:38;97532.34;;;2.77;73.44
3150;BME280;32503;47.748;8.960;2022-12-20T03:22:05;97528.38;;;2.74;73.52
3150;BME280;32503;47.748;8.960;2022-12-20T03:24:32;97527.00;;;2.77;73.40
3150;BME280;32503;47.748;8.960;2022-12-20T03:26:59;97536.41;;;2.74;73.69
3150;BME280;32503;47.748;8.960;2022-12-20T03:29:27;97505.63;;;2.58;73.61
3150;BME280;32503;47.748;8.960;2022-12-20T03:31:54;97518.72;;;2.78;73.41
3150;BME280;32503;47.748;8.960;2022-12-20T03:34:21;97523.50;;;2.81;73.38
3150;BME280;32503;47.748;8.960;2022-12-20T03:36:49;97521.09;;;2.80;73.51
3150;BME280;32503;47.748;8.960;2022-12-20T03:39:16;97520.59;;;2.78;74.05
3150;BME280;32503;47.748;8.960;2022-12-20T03:41:43;97521.59;;;2.82;74.05
3150;BME280;32503;47.748;8.960;2022-12-20T03:44:10;97516.59;;;2.75;73.27
3150;BME280;32503;47.748;8.960;2022-12-20T03:46:37;97514.75;;;2.76;73.77
3150;BME280;32503;47.748;8.960;2022-12-20T03:49:05;97517.44;;;2.76;73.87
3150;BME280;32503;47.748;8.960;2022-12-20T03:51:32;97510.53;;;2.70;73.27
3150;BME280;32503;47.748;8.960;2022-12-20T03:54:00;97523.84;;;2.75;73.38
3150;BME280;32503;47.748;8.960;2022-12-20T03:56:27;97524.13;;;2.73;73.37
3150;BME280;32503;47.748;8.960;2022-12-20T03:58:54;97528.72;;;2.68;73.30
3150;BME280;32503;47.748;8.960;2022-12-20T04:01:24;97518.63;;;2.64;73.69
3150;BME280;32503;47.748;8.960;2022-12-20T04:03:52;97510.09;;;2.62;74.17
3150;BME280;32503;47.748;8.960;2022-12-20T04:06:20;97513.34;;;2.59;73.99
3150;BME280;32503;47.748;8.960;2022-12-20T04:08:48;97518.16;;;2.57;74.53
3150;BME280;32503;47.748;8.960;2022-12-20T04:11:16;97503.75;;;2.58;74.37
3150;BME280;32503;47.748;8.960;2022-12-20T04:13:44;97506.38;;;2.63;73.96
3150;BME280;32503;47.748;8.960;2022-12-20T04:16:13;97504.41;;;2.69;74.33
3150;BME280;32503;47.748;8.960;2022-12-20T04:18:41;97509.19;;;2.72;73.61
3150;BME280;32503;47.748;8.960;2022-12-20T04:21:08;97509.41;;;2.76;74.08
3150;BME280;32503;47.748;8.960;2022-12-20T04:23:38;97490.84;;;2.65;73.57
3150;BME280;32503;47.748;8.960;2022-12-20T04:26:07;97501.13;;;2.77;73.48
3150;BME280;32503;47.748;8.960;2022-12-20T04:28:35;97505.66;;;2.77;73.83
3150;BME280;32503;47.748;8.960;2022-12-20T04:31:03;97498.44;;;2.77;73.65
3150;BME280;32503;47.748;8.960;2022-12-20T04:33:30;97495.34;;;2.70;73.96
3150;BME280;32503;47.748;8.960;2022-12-20T04:35:57;97499.09;;;2.69;73.71
3150;BME280;32503;47.748;8.960;2022-12-20T04:38:24;97496.13;;;2.71;73.64
3150;BME280;32503;47.748;8.960;2022-12-20T04:40:53;97493.97;;;2.73;73.94
3150;BME280;32503;47.748;8.960;2022-12-20T04:43:22;97496.91;;;2.71;74.12
3150;BME280;32503;47.748;8.960;2022-12-20T04:45:53;97499.09;;;2.69;73.94
3150;BME280;32503;47.748;8.960;2022-12-20T04:48:22;97496.63;;;2.73;74.03
3150;BME280;32503;47.748;8.960;2022-12-20T04:50:52;97493.09;;;2.77;74.14
3150;BME280;32503;47.748;8.960;2022-12-20T04:53:20;97507.25;;;2.78;73.70
3150;BME280;32503;47.748;8.960;2022-12-20T04:56:05;97494.97;;;2.77;73.74
3150;BME280;32503;47.748;8.960;2022-12-20T04:58:33;97497.34;;;2.78;73.88
3150;BME280;32503;47.748;8.960;2022-12-20T05:01:01;97501.34;;;2.81;73.99
3150;BME280;32503;47.748;8.960;2022-12-20T05:03:28;97501.34;;;2.81;73.54
3150;BME280;32503;47.748;8.960;2022-12-20T05:05:56;97496.50;;;2.83;74.04
3150;BME280;32503;47.748;8.960;2022-12-20T05:08:23;97465.81;;;2.61;73.63
3150;BME280;32503;47.748;8.960;2022-12-20T05:10:50;97483.22;;;2.78;73.57
3150;BME280;32503;47.748;8.960;2022-12-20T05:13:17;97484.81;;;2.79;73.72
3150;BME280;32503;47.748;8.960;2022-12-20T05:15:44;97481.31;;;2.78;74.15
3150;BME280;32503;47.748;8.960;2022-12-20T05:18:17;97480.25;;;2.79;73.86
3150;BME280;32503;47.748;8.960;2022-12-20T05:20:44;97475.78;;;2.75;73.70
3150;BME280;32503;47.748;8.960;2022-12-20T05:23:12;97474.63;;;2.81;74.27
3150;BME280;32503;47.748;8.960;2022-12-20T05:25:56;97477.81;;;2.83;73.93
3150;BME280;32503;47.748;8.960;2022-12-20T05:28:41;97469.22;;;2.86;73.78
3150;BME280;32503;47.748;8.960;2022-12-20T05:31:08;97445.91;;;2.73;74.05
3150;BME280;32503;47.748;8.960;2022-12-20T05:33:36;97463.56;;;2.88;73.79
3150;BME280;32503;47.748;8.960;2022-12-20T05:36:04;97465.94;;;2.89;74.10
3150;BME280;32503;47.748;8.960;2022-12-20T05:38:31;97466.56;;;2.86;74.19
3150;BME280;32503;47.748;8.960;2022-12-20T05:40:58;97464.44;;;2.83;74.28
3150;BME280;32503;47.748;8.960;2022-12-20T05:43:25;97470.06;;;2.81;73.91
3150;BME280;32503;47.748;8.960;2022-12-20T05:45:53;97467.41;;;2.81;74.63
3150;BME280;32503;47.748;8.960;2022-12-20T05:48:20;97461.78;;;2.83;74.29
3150;BME280;32503;47.748;8.960;2022-12-20T05:50:48;97453.28;;;2.81;74.29
3150;BME280;32503;47.748;8.960;2022-12-20T05:53:16;97460.19;;;2.82;73.94
3150;BME280;32503;47.748;8.960;2022-12-20T05:55:45;97450.59;;;2.81;73.96
3150;BME280;32503;47.748;8.960;2022-12-20T05:58:13;97444.97;;;2.82;74.33
3150;BME280;32503;47.748;8.960;2022-12-20T06:00:41;97447.66;;;2.82;74.38
3150;BME280;32503;47.748;8.960;2022-12-20T06:03:09;97449.56;;;2.77;74.31
3150;BME280;32503;47.748;8.960;2022-12-20T06:05:38;97450.88;;;2.79;74.27
3150;BME280;32503;47.748;8.960;2022-12-20T06:08:07;97456.78;;;2.76;74.09
3150;BME280;32503;47.748;8.960;2022-12-20T06:10:35;97452.03;;;2.73;74.40
3150;BME280;32503;47.748;8.960;2022-12-20T06:13:02;97442.72;;;2.71;74.06
3150;BME280;32503;47.748;8.960;2022-12-20T06:15:30;97450.22;;;2.69;73.93
3150;BME280;32503;47.748;8.960;2022-12-20T06:17:57;97448.06;;;2.71;74.59
3150;BME280;32503;47.748;8.960;2022-12-20T06:20:24;97435.84;;;2.64;74.06
3150;BME280;32503;47.748;8.960;2022-12-20T06:22:51;97446.19;;;2.71;73.80
3150;BME280;32503;47.748;8.960;2022-12-20T06:25:20;97448.34;;;2.69;74.12
3150;BME280;32503;47.748;8.960;2022-12-20T06:27:47;97438.75;;;2.68;74.43
3150;BME280;32503;47.748;8.960;2022-12-20T06:30:15;97401.44;;;2.44;74.18
3150;BME280;32503;47.748;8.960;2022-12-20T06:32:43;97439.78;;;2.72;74.18
3150;BME280;32503;47.748;8.960;2022-12-20T06:35:10;97433.53;;;2.77;74.16
3150;BME280;32503;47.748;8.960;2022-12-20T06:37:37;97441.00;;;2.80;74.38
3150;BME280;32503;47.748;8.960;2022-12-20T06:40:07;97429.53;;;2.79;74.00
3150;BME280;32503;47.748;8.960;2022-12-20T06:42:36;97429.31;;;2.76;74.19
3150;BME280;32503;47.748;8.960;2022-12-20T06:45:04;97427.72;;;2.75;74.49
3150;BME280;32503;47.748;8.960;2022-12-20T06:47:31;97428.75;;;2.79;74.67
3150;BME280;32503;47.748;8.960;2022-12-20T06:49:58;97434.06;;;2.79;74.29
3150;BME280;32503;47.748;8.960;2022-12-20T06:52:25;97422.94;;;2.72;74.36
3150;BME280;32503;47.748;8.960;2022-12-20T06:54:52;97429.88;;;2.73;74.17
3150;BME280;32503;47.748;8.960;2022-12-20T06:57:19;97430.66;;;2.73;74.81
3150;BME280;32503;47.748;8.960;2022-12-20T06:59:48;97433.06;;;2.75;74.40
3150;BME280;32503;47.748;8.960;2022-12-20T07:02:15;97426.63;;;2.76;74.64
3150;BME280;32503;47.748;8.960;2022-12-20T07:04:42;97434.88;;;2.79;74.53
3150;BME280;32503;47.748;8.960;2022-12-20T07:07:11;97438.59;;;2.78;74.62
3150;BME280;32503;47.748;8.960;2022-12-20T07:09:38;97431.91;;;2.81;74.97
3150;BME280;32503;47.748;8.960;2022-12-20T07:12:07;97438.25;;;2.85;74.76
3150;BME280;32503;47.748;8.960;2022-12-20T07:14:34;97441.13;;;2.89;74.86
3150;BME280;32503;47.748;8.960;2022-12-20T07:17:03;97439.25;;;2.89;75.33
3150;BME280;32503;47.748;8.960;2022-12-20T07:19:30;97438.09;;;2.95;74.62
3150;BME280;32503;47.748;8.960;2022-12-20T07:21:57;97431.97;;;2.95;75.08
3150;BME280;32503;47.748;8.960;2022-12-20T07:24:24;97431.59;;;3.01;74.79
3150;BME280;32503;47.748;8.960;2022-12-20T07:26:51;97423.28;;;3.03;74.51
3150;BME280;32503;47.748;8.960;2022-12-20T07:29:18;97431.59;;;3.01;74.75
3150;BME280;32503;47.748;8.960;2022-12-20T07:31:45;97440.19;;;2.98;74.62
3150;BME280;32503;47.748;8.960;2022-12-20T07:34:14;97435.34;;;3.00;74.75
3150;BME280;32503;47.748;8.960;2022-12-20T07:36:41;97445.97;;;3.06;74.34
3150;BME280;32503;47.748;8.960;2022-12-20T07:39:08;97442.69;;;3.09;74.68
3150;BME280;32503;47.748;8.960;2022-12-20T07:41:35;97441.03;;;3.13;74.50
3150;BME280;32503;47.748;8.960;2022-12-20T07:44:02;97432.94;;;3.18;74.76
3150;BME280;32503;47.748;8.960;2022-12-20T07:46:29;97434.72;;;3.22;74.76
3150;BME280;32503;47.748;8.960;2022-12-20T07:48:56;97429.38;;;3.22;74.24
3150;BME280;32503;47.748;8.960;2022-12-20T07:51:28;97422.56;;;3.16;73.96
3150;BME280;32503;47.748;8.960;2022-12-20T07:54:01;97438.63;;;3.30;73.99
3150;BME280;32503;47.748;8.960;2022-12-20T07:56:30;97440.78;;;3.28;73.92
3150;BME280;32503;47.748;8.960;2022-12-20T07:58:59;97430.19;;;3.23;73.54
3150;BME280;32503;47.748;8.960;2022-12-20T08:01:27;97400.13;;;2.98;73.83
3150;BME280;32503;47.748;8.960;2022-12-20T08:04:01;97426.50;;;3.19;73.65
3150;BME280;32503;47.748;8.960;2022-12-20T08:06:31;97430.50;;;3.21;73.97
3150;BME280;32503;47.748;8.960;2022-12-20T08:09:03;97448.31;;;3.26;73.83
3150;BME280;32503;47.748;8.960;2022-12-20T08:11:32;97422.84;;;3.15;73.70
3150;BME280;32503;47.748;8.960;2022-12-20T08:14:00;97450.59;;;3.33;74.02
3150;BME280;32503;47.748;8.960;2022-12-20T08:16:28;97447.78;;;3.43;73.63
3150;BME280;32503;47.748;8.960;2022-12-20T08:18:56;97445.31;;;3.47;73.73
3150;BME280;32503;47.748;8.960;2022-12-20T08:21:23;97434.31;;;3.48;73.33
3150;BME280;32503;47.748;8.960;2022-12-20T08:23:51;97426.50;;;3.52;73.54
3150;BME280;32503;47.748;8.960;2022-12-20T08:26:18;97423.47;;;3.58;73.27
3150;BME280;32503;47.748;8.960;2022-12-20T08:28:45;97416.50;;;3.57;73.17
3150;BME280;32503;47.748;8.960;2022-12-20T08:31:12;97408.19;;;3.59;73.08
3150;BME280;32503;47.748;8.960;2022-12-20T08:33:40;97415.84;;;3.66;72.99
3150;BME280;32503;47.748;8.960;2022-12-20T08:36:10;97394.72;;;3.50;73.34
3150;BME280;32503;47.748;8.960;2022-12-20T08:38:39;97420.09;;;3.67;72.95
3150;BME280;32503;47.748;8.960;2022-12-20T08:41:10;97381.34;;;3.50;72.95
3150;BME280;32503;47.748;8.960;2022-12-20T08:43:38;97402.47;;;3.66;73.13
3150;BME280;32503;47.748;8.960;2022-12-20T08:46:07;97403.66;;;3.73;72.79
3150;BME280;32503;47.748;8.960;2022-12-20T08:48:35;97408.50;;;3.71;72.86
3150;BME280;32503;47.748;8.960;2022-12-20T08:51:05;97406.81;;;3.61;72.69
3150;BME280;32503;47.748;8.960;2022-12-20T08:53:33;97409.28;;;3.72;72.50
3150;BME280;32503;47.748;8.960;2022-12-20T08:56:07;97413.78;;;3.76;72.75
3150;BME280;32503;47.748;8.960;2022-12-20T08:58:35;97414.25;;;3.78;72.35
3150;BME280;32503;47.748;8.960;2022-12-20T09:01:05;97421.22;;;3.79;72.32
3150;BME280;32503;47.748;8.960;2022-12-20T09:03:34;97417.13;;;3.82;72.36
3150;BME280;32503;47.748;8.960;2022-12-20T09:06:06;97416.25;;;3.87;72.42
3150;BME280;32503;47.748;8.960;2022-12-20T09:08:33;97409.00;;;3.87;72.46
3150;BME280;32503;47.748;8.960;2022-12-20T09:11:04;97413.50;;;3.92;72.53
3150;BME280;32503;47.748;8.960;2022-12-20T09:13:33;97406.84;;;4.03;72.61
3150;BME280;32503;47.748;8.960;2022-12-20T09:16:01;97404.06;;;4.08;72.67
3150;BME280;32503;47.748;8.960;2022-12-20T09:18:29;97412.97;;;4.17;72.66
3150;BME280;32503;47.748;8.960;2022-12-20T09:20:58;97416.13;;;4.20;72.55
3150;BME280;32503;47.748;8.960;2022-12-20T09:23:26;97419.09;;;4.32;72.24
3150;BME280;32503;47.748;8.960;2022-12-20T09:25:53;97417.91;;;4.38;72.55
3150;BME280;32503;47.748;8.960;2022-12-20T09:28:20;97419.19;;;4.41;72.28
3150;BME280;32503;47.748;8.960;2022-12-20T09:30:48;97423.66;;;4.45;72.13
3150;BME280;32503;47.748;8.960;2022-12-20T09:33:16;97413.91;;;4.49;72.14
3150;BME280;32503;47.748;8.960;2022-12-20T09:35:44;97411.53;;;4.48;72.29
3150;BME280;32503;47.748;8.960;2022-12-20T09:38:12;97407.28;;;4.47;72.23
3150;BME280;32503;47.748;8.960;2022-12-20T09:40:45;97412.72;;;4.55;71.79
3150;BME280;32503;47.748;8.960;2022-12-20T09:43:14;97410.53;;;4.58;71.88
3150;BME280;32503;47.748;8.960;2022-12-20T09:45:43;97397.81;;;4.63;71.94
3150;BME280;32503;47.748;8.960;2022-12-20T09:48:18;97408.13;;;4.70;71.56
3150;BME280;32503;47.748;8.960;2022-12-20T09:50:56;97389.88;;;4.72;71.71
3150;BME280;32503;47.748;8.960;2022-12-20T09:53:38;97379.63;;;4.74;71.20
3150;BME280;32503;47.748;8.960;2022-12-20T09:56:14;97379.63;;;4.74;71.06
3150;BME280;32503;47.748;8.960;2022-12-20T09:58:59;97378.84;;;4.73;70.66
3150;BME280;32503;47.748;8.960;2022-12-20T10:01:30;97387.28;;;4.67;70.90
3150;BME280;32503;47.748;8.960;2022-12-20T10:04:03;97354.81;;;4.46;71.31
3150;BME280;32503;47.748;8.960;2022-12-20T10:06:42;97381.94;;;4.67;71.39
3150;BME280;32503;47.748;8.960;2022-12-20T10:09:33;97381.34;;;4.70;71.39
3150;BME280;32503;47.748;8.960;2022-12-20T10:12:16;97372.72;;;4.73;71.23
3150;BME280;32503;47.748;8.960;2022-12-20T10:15:13;97369.41;;;4.76;71.48
3150;BME280;32503;47.748;8.960;2022-12-20T10:17:57;97348.09;;;4.71;71.22
3150;BME280;32503;47.748;8.960;2022-12-20T10:20:44;97349.63;;;4.86;71.12
3150;BME280;32503;47.748;8.960;2022-12-20T10:23:20;97334.81;;;4.88;71.36
3150;BME280;32503;47.748;8.960;2022-12-20T10:25:52;97349.44;;;5.05;70.71
3150;BME280;32503;47.748;8.960;2022-12-20T10:28:26;97345.41;;;5.16;71.11
3150;BME280;32503;47.748;8.960;2022-12-20T10:30:59;97347.47;;;5.19;70.34
3150;BME280;32503;47.748;8.960;2022-12-20T10:33:29;97341.88;;;5.29;70.74
3150;BME280;32503;47.748;8.960;2022-12-20T10:36:18;97340.00;;;5.39;70.82
3150;BME280;32503;47.748;8.960;2022-12-20T10:38:48;97342.44;;;5.49;70.02
3150;BME280;32503;47.748;8.960;2022-12-20T10:41:18;97330.63;;;5.59;69.87
3150;BME280;32503;47.748;8.960;2022-12-20T10:43:48;97292.38;;;5.44;70.02
3150;BME280;32503;47.748;8.960;2022-12-20T10:46:17;97320.72;;;5.77;70.18
3150;BME280;32503;47.748;8.960;2022-12-20T10:48:46;97317.00;;;5.86;69.70
3150;BME280;32503;47.748;8.960;2022-12-20T10:51:19;97315.91;;;5.96;69.40
3150;BME280;32503;47.748;8.960;2022-12-20T10:53:56;97296.06;;;6.06;69.07
3150;BME280;32503;47.748;8.960;2022-12-20T10:56:26;97287.88;;;6.20;69.13
3150;BME280;32503;47.748;8.960;2022-12-20T10:58:57;97286.91;;;6.24;68.89
3150;BME280;32503;47.748;8.960;2022-12-20T11:01:28;97295.78;;;6.34;68.41
3150;BME280;32503;47.748;8.960;2022-12-20T11:04:00;97282.00;;;6.35;67.68
3150;BME280;32503;47.748;8.960;2022-12-20T11:06:41;97271.75;;;6.37;68.30
3150;BME280;32503;47.748;8.960;2022-12-20T11:09:25;97270.78;;;6.42;67.51
3150;BME280;32503;47.748;8.960;2022-12-20T11:12:02;97254.06;;;6.45;67.70
3150;BME280;32503;47.748;8.960;2022-12-20T11:14:32;97249.97;;;6.39;67.83
3150;BME280;32503;47.748;8.960;2022-12-20T11:17:04;97230.88;;;6.23;67.87
3150;BME280;32503;47.748;8.960;2022-12-20T11:20:03;97262.91;;;6.37;67.70
3150;BME280;32503;47.748;8.960;2022-12-20T11:22:46;97266.84;;;6.39;67.01
3150;BME280;32503;47.748;8.960;2022-12-20T11:25:33;97243.78;;;6.38;67.76
3150;BME280;32503;47.748;8.960;2022-12-20T11:28:19;97255.00;;;6.32;67.29
3150;BME280;32503;47.748;8.960;2022-12-20T11:30:59;97245.84;;;6.33;67.53
3150;BME280;32503;47.748;8.960;2022-12-20T11:33:54;97251.22;;;6.33;67.59
3150;BME280;32503;47.748;8.960;2022-12-20T11:36:30;97241.72;;;6.35;67.73
3150;BME280;32503;47.748;8.960;2022-12-20T11:39:13;97232.25;;;6.38;67.74
3150;BME280;32503;47.748;8.960;2022-12-20T11:41:47;97226.41;;;6.44;68.36
3150;BME280;32503;47.748;8.960;2022-12-20T11:44:23;97212.31;;;6.48;67.51
3150;BME280;32503;47.748;8.960;2022-12-20T11:47:08;97212.97;;;6.53;68.27
3150;BME280;32503;47.748;8.960;2022-12-20T11:50:10;97190.03;;;6.56;68.31
3150;BME280;32503;47.748;8.960;2022-12-20T11:52:48;97180.28;;;6.42;68.05
3150;BME280;32503;47.748;8.960;2022-12-20T11:55:24;97202.38;;;6.57;67.54
3150;BME280;32503;47.748;8.960;2022-12-20T11:57:59;97202.38;;;6.57;68.42
3150;BME280;32503;47.748;8.960;2022-12-20T12:00:28;97211.06;;;6.62;68.06
3150;BME280;32503;47.748;8.960;2022-12-20T12:03:08;97202.53;;;6.60;68.38
3150;BME280;32503;47.748;8.960;2022-12-20T12:05:42;97195.41;;;6.56;67.82
3150;BME280;32503;47.748;8.960;2022-12-20T12:08:16;97186.13;;;6.53;67.39
3150;BME280;32503;47.748;8.960;2022-12-20T12:10:53;97187.34;;;6.56;68.06
3150;BME280;32503;47.748;8.960;2022-12-20T12:13:26;97194.50;;;6.52;68.25
3150;BME280;32503;47.748;8.960;2022-12-20T12:15:58;97186.44;;;6.52;67.90
3150;BME280;32503;47.748;8.960;2022-12-20T12:18:29;97178.69;;;6.50;68.08
3150;BME280;32503;47.748;8.960;2022-12-20T12:21:05;97176.78;;;6.51;67.99
3150;BME280;32503;47.748;8.960;2022-12-20T12:23:43;97176.94;;;6.54;67.89
3150;BME280;32503;47.748;8.960;2022-12-20T12:26:19;97172.38;;;6.55;68.17
3150;BME280;32503;47.748;8.960;2022-12-20T12:28:53;97152.31;;;6.43;68.54
3150;BME280;32503;47.748;8.960;2022-12-20T12:31:27;97140.47;;;6.44;68.41
3150;BME280;32503;47.748;8.960;2022-12-20T12:34:10;97161.91;;;6.62;67.91
3150;BME280;32503;47.748;8.960;2022-12-20T12:37:15;97152.25;;;6.61;68.57
3150;BME280;32503;47.748;8.960;2022-12-20T12:40:21;97156.38;;;6.67;68.26
3150;BME280;32503;47.748;8.960;2022-12-20T12:46:18;97164.94;;;6.99;68.42
3150;BME280;32503;47.748;8.960;2022-12-20T12:48:53;97148.06;;;7.19;68.32
3150;BME280;32503;47.748;8.960;2022-12-20T12:51:28;97143.63;;;7.24;67.89
3150;BME280;32503;47.748;8.960;2022-12-20T12:54:17;97152.19;;;7.47;67.82
3150;BME280;32503;47.748;8.960;2022-12-20T12:56:47;97162.09;;;7.55;66.97
3150;BME280;32503;47.748;8.960;2022-12-20T12:59:42;97155.63;;;7.56;66.41
3150;BME280;32503;47.748;8.960;2022-12-20T13:02:32;97154.97;;;7.59;66.44
3150;BME280;32503;47.748;8.960;2022-12-20T13:05:28;97152.34;;;7.50;66.60
3150;BME280;32503;47.748;8.960;2022-12-20T13:07:56;97152.84;;;7.44;66.83
3150;BME280;32503;47.748;8.960;2022-12-20T13:11:11;97158.88;;;7.40;67.09
3150;BME280;32503;47.748;8.960;2022-12-20T13:13:38;97167.13;;;7.35;67.40
3150;BME280;32503;47.748;8.960;2022-12-20T13:16:28;97166.78;;;7.37;67.25
3150;BME280;32503;47.748;8.960;2022-12-20T13:19:10;97168.19;;;7.43;67.33
3150;BME280;32503;47.748;8.960;2022-12-20T13:21:41;97148.25;;;7.44;66.99
3150;BME280;32503;47.748;8.960;2022-12-20T13:24:49;97148.50;;;7.51;66.72
3150;BME280;32503;47.748;8.960;2022-12-20T13:27:34;97133.56;;;7.42;66.57
3150;BME280;32503;47.748;8.960;2022-12-20T13:30:25;97135.38;;;7.50;66.80
3150;BME280;32503;47.748;8.960;2022-12-20T13:33:38;97129.09;;;7.46;66.66
3150;BME280;32503;47.748;8.960;2022-12-20T13:36:31;97089.19;;;7.27;66.77
3150;BME280;32503;47.748;8.960;2022-12-20T13:39:00;97108.41;;;7.37;67.36
3150;BME280;32503;47.748;8.960;2022-12-20T13:41:36;97111.78;;;7.34;67.13
3150;BME280;32503;47.748;8.960;2022-12-20T13:44:33;97103.56;;;7.31;67.58
3150;BME280;32503;47.748;8.960;2022-12-20T13:47:11;97108.13;;;7.30;67.67
3150;BME280;32503;47.748;8.960;2022-12-20T13:49:42;97115.88;;;7.32;67.58
3150;BME280;32503;47.748;8.960;2022-12-20T13:52:26;97107.81;;;7.32;67.82
3150;BME280;32503;47.748;8.960;2022-12-20T13:54:57;97106.91;;;7.28;67.77